createdAt,value
2023-03-05T00:00:40.612Z,2.59
2023-03-05T00:01:40.614Z,2.56
2023-03-05T00:02:40.598Z,2.58
2023-03-05T00:03:40.615Z,2.58
2023-03-05T00:04:40.657Z,2.56
2023-03-05T00:05:40.635Z,2.58
2023-03-05T00:06:40.546Z,2.59
2023-03-05T00:07:40.503Z,2.56
2023-03-05T00:08:40.502Z,2.55
2023-03-05T00:09:40.838Z,2.53
2023-03-05T00:10:41.544Z,2.51
2023-03-05T00:11:40.490Z,2.49
2023-03-05T00:12:40.687Z,2.46
2023-03-05T00:13:40.458Z,2.45
2023-03-05T00:14:40.425Z,2.41
2023-03-05T00:15:41.587Z,2.40
2023-03-05T00:16:41.493Z,2.38
2023-03-05T00:17:40.788Z,2.37
2023-03-05T00:18:40.365Z,2.35
2023-03-05T00:19:41.190Z,2.37
2023-03-05T00:20:40.355Z,2.38
2023-03-05T00:21:40.453Z,2.37
2023-03-05T00:22:40.503Z,2.35
2023-03-05T00:23:40.855Z,2.34
2023-03-05T00:24:40.337Z,2.37
2023-03-05T00:25:40.304Z,2.35
2023-03-05T00:26:40.290Z,2.34
2023-03-05T00:27:41.487Z,2.34
2023-03-05T00:28:40.249Z,2.34
2023-03-05T00:29:40.222Z,2.34
2023-03-05T00:30:41.159Z,2.35
2023-03-05T00:31:40.516Z,2.33
2023-03-05T00:32:40.287Z,2.33
2023-03-05T00:33:41.389Z,2.34
2023-03-05T00:34:41.251Z,2.34
2023-03-05T00:35:40.331Z,2.33
2023-03-05T00:36:40.161Z,2.34
2023-03-05T00:37:40.154Z,2.34
2023-03-05T00:38:40.135Z,2.34
2023-03-05T00:39:40.132Z,2.34
2023-03-05T00:40:40.220Z,2.33
2023-03-05T00:41:40.154Z,2.33
2023-03-05T00:42:40.173Z,2.31
2023-03-05T00:43:40.132Z,2.33
2023-03-05T00:44:40.044Z,2.33
2023-03-05T00:45:40.066Z,2.31
2023-03-05T00:46:40.077Z,2.33
2023-03-05T00:47:40.105Z,2.30
2023-03-05T00:48:40.045Z,2.31
2023-03-05T00:49:40.006Z,2.30
2023-03-05T00:50:39.995Z,2.27
2023-03-05T00:51:39.973Z,2.28
2023-03-05T00:52:40.022Z,2.28
2023-03-05T00:53:39.954Z,2.30
2023-03-05T00:54:39.931Z,2.30
2023-03-05T00:55:39.906Z,2.31
2023-03-05T00:56:40.064Z,2.30
2023-03-05T00:57:39.946Z,2.30
2023-03-05T00:58:39.926Z,2.30
2023-03-05T00:59:39.862Z,2.28
2023-03-05T01:00:39.848Z,2.28
2023-03-05T01:01:39.884Z,2.28
2023-03-05T01:02:39.854Z,2.30
2023-03-05T01:03:39.819Z,2.28
2023-03-05T01:04:39.825Z,2.27
2023-03-05T01:05:40.860Z,2.28
2023-03-05T01:06:39.837Z,2.26
2023-03-05T01:07:39.824Z,2.28
2023-03-05T01:08:39.739Z,2.28
2023-03-05T01:09:39.732Z,2.31
2023-03-05T01:10:39.707Z,2.31
2023-03-05T01:11:39.677Z,2.30
2023-03-05T01:12:39.740Z,2.30
2023-03-05T01:13:39.699Z,2.30
2023-03-05T01:14:39.807Z,2.30
2023-03-05T01:15:40.414Z,2.30
2023-03-05T01:16:39.606Z,2.33
2023-03-05T01:17:39.697Z,2.33
2023-03-05T01:18:39.649Z,2.34
2023-03-05T01:19:39.849Z,2.34
2023-03-05T01:20:39.610Z,2.33
2023-03-05T01:21:40.351Z,2.31
2023-03-05T01:22:39.524Z,2.30
2023-03-05T01:23:39.550Z,2.31
2023-03-05T01:24:39.540Z,2.30
2023-03-05T01:25:39.829Z,2.30
2023-03-05T01:26:39.540Z,2.33
2023-03-05T01:27:39.510Z,2.34
2023-03-05T01:28:39.495Z,2.33
2023-03-05T01:29:39.470Z,2.33
2023-03-05T01:30:39.468Z,2.33
2023-03-05T01:31:39.643Z,2.33
2023-03-05T01:32:39.519Z,2.33
2023-03-05T01:33:39.438Z,2.33
2023-03-05T01:34:39.517Z,2.35
2023-03-05T01:35:39.415Z,2.37
2023-03-05T01:36:40.427Z,2.37
2023-03-05T01:37:40.340Z,2.37
2023-03-05T01:38:39.451Z,2.37
2023-03-05T01:39:39.500Z,2.40
2023-03-05T01:40:39.305Z,2.38
2023-03-05T01:41:39.301Z,2.38
2023-03-05T01:42:39.277Z,2.38
2023-03-05T01:43:39.320Z,2.40
2023-03-05T01:44:39.290Z,2.41
2023-03-05T01:45:39.393Z,2.44
2023-03-05T01:46:39.289Z,2.44
2023-03-05T01:47:39.415Z,2.44
2023-03-05T01:48:39.280Z,2.44
2023-03-05T01:49:40.155Z,2.41
2023-03-05T01:50:40.112Z,2.41
2023-03-05T01:51:39.687Z,2.41
2023-03-05T01:52:39.411Z,2.41
2023-03-05T01:53:39.184Z,2.41
2023-03-05T01:54:39.192Z,2.40
2023-03-05T01:55:39.132Z,2.44
2023-03-05T01:56:39.100Z,2.44
2023-03-05T01:57:39.120Z,2.44
2023-03-05T01:58:39.070Z,2.41
2023-03-05T01:59:39.199Z,2.41
2023-03-05T02:00:39.090Z,2.40
2023-03-05T02:01:39.046Z,2.40
2023-03-05T02:02:39.041Z,2.41
2023-03-05T02:03:39.900Z,2.38
2023-03-05T02:04:39.132Z,2.40
2023-03-05T02:05:39.012Z,2.38
2023-03-05T02:06:40.112Z,2.40
2023-03-05T02:07:40.140Z,2.37
2023-03-05T02:08:38.964Z,2.38
2023-03-05T02:09:39.061Z,2.37
2023-03-05T02:10:39.141Z,2.37
2023-03-05T02:11:40.142Z,2.37
2023-03-05T02:12:39.059Z,2.35
2023-03-05T02:13:38.914Z,2.35
2023-03-05T02:14:39.855Z,2.37
2023-03-05T02:15:38.876Z,2.35
2023-03-05T02:16:40.371Z,2.35
2023-03-05T02:17:38.838Z,2.34
2023-03-05T02:18:38.909Z,2.33
2023-03-05T02:19:38.906Z,2.33
2023-03-05T02:20:38.805Z,2.35
2023-03-05T02:21:38.847Z,2.34
2023-03-05T02:22:38.814Z,2.35
2023-03-05T02:23:40.016Z,2.35
2023-03-05T02:24:39.919Z,2.38
2023-03-05T02:25:39.828Z,2.38
2023-03-05T02:26:39.724Z,2.37
2023-03-05T02:27:38.758Z,2.37
2023-03-05T02:28:40.165Z,2.38
2023-03-05T02:29:39.674Z,2.38
2023-03-05T02:30:39.854Z,2.38
2023-03-05T02:31:38.874Z,2.40
2023-03-05T02:32:38.710Z,2.40
2023-03-05T02:33:38.686Z,2.41
2023-03-05T02:34:38.649Z,2.40
2023-03-05T02:35:38.715Z,2.41
2023-03-05T02:36:38.616Z,2.38
2023-03-05T02:37:39.698Z,2.38
2023-03-05T02:38:39.599Z,2.37
2023-03-05T02:39:38.619Z,2.35
2023-03-05T02:40:38.629Z,2.33
2023-03-05T02:41:38.576Z,2.34
2023-03-05T02:42:38.667Z,2.34
2023-03-05T02:43:38.587Z,2.35
2023-03-05T02:44:38.546Z,2.34
2023-03-05T02:45:38.578Z,2.33
2023-03-05T02:46:38.491Z,2.35
2023-03-05T02:47:38.511Z,2.35
2023-03-05T02:48:38.469Z,2.34
2023-03-05T02:49:38.488Z,2.33
2023-03-05T02:50:38.451Z,2.31
2023-03-05T02:51:38.561Z,2.30
2023-03-05T02:52:39.391Z,2.28
2023-03-05T02:53:38.682Z,2.30
2023-03-05T02:54:38.397Z,2.30
2023-03-05T02:55:38.394Z,2.27
2023-03-05T02:56:38.429Z,2.28
2023-03-05T02:57:38.393Z,2.26
2023-03-05T02:58:38.549Z,2.26
2023-03-05T02:59:38.381Z,2.23
2023-03-05T03:00:38.321Z,2.23
2023-03-05T03:01:38.404Z,2.22
2023-03-05T03:02:39.299Z,2.22
2023-03-05T03:03:38.424Z,2.20
2023-03-05T03:04:38.291Z,2.20
2023-03-05T03:05:38.289Z,2.19
2023-03-05T03:06:39.456Z,2.17
2023-03-05T03:07:38.322Z,2.17
2023-03-05T03:08:38.293Z,2.17
2023-03-05T03:09:38.872Z,2.15
2023-03-05T03:10:38.214Z,2.16
2023-03-05T03:11:38.203Z,2.13
2023-03-05T03:12:38.190Z,2.16
2023-03-05T03:13:38.140Z,2.15
2023-03-05T03:14:38.188Z,2.15
2023-03-05T03:15:39.132Z,2.13
2023-03-05T03:16:38.225Z,2.13
2023-03-05T03:17:38.986Z,2.13
2023-03-05T03:18:38.175Z,2.15
2023-03-05T03:19:38.121Z,2.13
2023-03-05T03:20:38.156Z,2.15
2023-03-05T03:21:38.039Z,2.13
2023-03-05T03:22:38.971Z,2.15
2023-03-05T03:23:38.037Z,2.13
2023-03-05T03:24:38.416Z,2.16
2023-03-05T03:25:37.998Z,2.15
2023-03-05T03:26:38.023Z,2.15
2023-03-05T03:27:38.049Z,2.17
2023-03-05T03:28:38.067Z,2.17
2023-03-05T03:29:37.974Z,2.16
2023-03-05T03:30:38.599Z,2.19
2023-03-05T03:31:39.129Z,2.19
2023-03-05T03:32:38.141Z,2.17
2023-03-05T03:33:37.911Z,2.19
2023-03-05T03:34:37.959Z,2.19
2023-03-05T03:35:37.953Z,2.20
2023-03-05T03:36:37.868Z,2.22
2023-03-05T03:37:37.960Z,2.20
2023-03-05T03:38:37.837Z,2.22
2023-03-05T03:39:37.851Z,2.22
2023-03-05T03:40:37.941Z,2.22
2023-03-05T03:41:38.693Z,2.22
2023-03-05T03:42:37.852Z,2.22
2023-03-05T03:43:37.812Z,2.22
2023-03-05T03:44:37.878Z,2.22
2023-03-05T03:45:37.814Z,2.23
2023-03-05T03:46:37.862Z,2.23
2023-03-05T03:47:37.813Z,2.23
2023-03-05T03:48:37.731Z,2.26
2023-03-05T03:49:37.715Z,2.23
2023-03-05T03:50:37.717Z,2.26
2023-03-05T03:51:37.690Z,2.27
2023-03-05T03:52:38.654Z,2.28
2023-03-05T03:53:37.685Z,2.28
2023-03-05T03:54:37.656Z,2.27
2023-03-05T03:55:37.663Z,2.30
2023-03-05T03:56:38.795Z,2.28
2023-03-05T03:57:37.600Z,2.27
2023-03-05T03:58:38.580Z,2.26
2023-03-05T03:59:37.578Z,2.26
2023-03-05T04:00:37.714Z,2.26
2023-03-05T04:01:37.543Z,2.26
2023-03-05T04:02:37.615Z,2.26
2023-03-05T04:03:37.569Z,2.22
2023-03-05T04:04:37.549Z,2.19
2023-03-05T04:05:37.482Z,2.16
2023-03-05T04:06:37.514Z,2.15
2023-03-05T04:07:37.488Z,2.12
2023-03-05T04:08:37.857Z,2.10
2023-03-05T04:09:37.874Z,2.10
2023-03-05T04:10:38.415Z,2.12
2023-03-05T04:11:37.635Z,2.10
2023-03-05T04:12:37.492Z,2.12
2023-03-05T04:13:37.466Z,2.13
2023-03-05T04:14:37.398Z,2.15
2023-03-05T04:15:37.437Z,2.13
2023-03-05T04:16:37.376Z,2.13
2023-03-05T04:17:37.358Z,2.13
2023-03-05T04:18:37.487Z,2.15
2023-03-05T04:19:37.336Z,2.16
2023-03-05T04:20:37.357Z,2.16
2023-03-05T04:21:37.341Z,2.15
2023-03-05T04:22:37.489Z,2.16
2023-03-05T04:23:37.344Z,2.16
2023-03-05T04:24:37.340Z,2.16
2023-03-05T04:25:37.351Z,2.17
2023-03-05T04:26:37.248Z,2.16
2023-03-05T04:27:37.237Z,2.17
2023-03-05T04:28:37.219Z,2.17
2023-03-05T04:29:37.240Z,2.17
2023-03-05T04:30:37.205Z,2.17
2023-03-05T04:31:37.178Z,2.17
2023-03-05T04:32:38.184Z,2.16
2023-03-05T04:33:38.293Z,2.16
2023-03-05T04:34:37.265Z,2.17
2023-03-05T04:35:37.249Z,2.17
2023-03-05T04:36:38.176Z,2.19
2023-03-05T04:37:37.776Z,2.17
2023-03-05T04:38:37.121Z,2.20
2023-03-05T04:39:37.097Z,2.20
2023-03-05T04:40:37.062Z,2.20
2023-03-05T04:41:37.104Z,2.20
2023-03-05T04:42:37.044Z,2.22
2023-03-05T04:43:37.065Z,2.22
2023-03-05T04:44:37.003Z,2.20
2023-03-05T04:45:37.090Z,2.20
2023-03-05T04:46:38.114Z,2.20
2023-03-05T04:47:37.974Z,2.22
2023-03-05T04:48:37.155Z,2.23
2023-03-05T04:49:37.907Z,2.23
2023-03-05T04:50:36.910Z,2.22
2023-03-05T04:51:36.910Z,2.20
2023-03-05T04:52:36.915Z,2.20
2023-03-05T04:53:36.970Z,2.19
2023-03-05T04:54:37.802Z,2.17
2023-03-05T04:55:36.903Z,2.19
2023-03-05T04:56:37.032Z,2.19
2023-03-05T04:57:38.031Z,2.20
2023-03-05T04:58:36.855Z,2.20
2023-03-05T04:59:36.869Z,2.22
2023-03-05T05:00:36.922Z,2.23
2023-03-05T05:01:37.718Z,2.22
2023-03-05T05:02:37.346Z,2.23
2023-03-05T05:03:36.812Z,2.23
2023-03-05T05:04:36.798Z,2.23
2023-03-05T05:05:36.771Z,2.23
2023-03-05T05:06:36.765Z,2.20
2023-03-05T05:07:36.753Z,2.20
2023-03-05T05:08:36.795Z,2.22
2023-03-05T05:09:36.727Z,2.20
2023-03-05T05:10:36.737Z,2.23
2023-03-05T05:11:36.663Z,2.26
2023-03-05T05:12:37.617Z,2.26
2023-03-05T05:13:37.176Z,2.27
2023-03-05T05:14:36.778Z,2.23
2023-03-05T05:15:36.609Z,2.22
2023-03-05T05:16:36.651Z,2.23
2023-03-05T05:17:36.581Z,2.26
2023-03-05T05:18:36.594Z,2.27
2023-03-05T05:19:36.629Z,2.27
2023-03-05T05:20:36.571Z,2.28
2023-03-05T05:21:36.568Z,2.27
2023-03-05T05:22:36.568Z,2.28
2023-03-05T05:23:37.590Z,2.27
2023-03-05T05:24:36.528Z,2.28
2023-03-05T05:25:37.398Z,2.30
2023-03-05T05:26:36.578Z,2.31
2023-03-05T05:27:37.713Z,2.28
2023-03-05T05:28:36.579Z,2.28
2023-03-05T05:29:36.536Z,2.30
2023-03-05T05:30:36.416Z,2.26
2023-03-05T05:31:36.481Z,2.27
2023-03-05T05:32:36.482Z,2.27
2023-03-05T05:33:36.389Z,2.28
2023-03-05T05:34:36.501Z,2.28
2023-03-05T05:35:36.553Z,2.28
2023-03-05T05:36:36.376Z,2.28
2023-03-05T05:37:37.344Z,2.28
2023-03-05T05:38:37.102Z,2.28
2023-03-05T05:39:37.113Z,2.28
2023-03-05T05:40:36.340Z,2.30
2023-03-05T05:41:36.320Z,2.30
2023-03-05T05:42:36.316Z,2.28
2023-03-05T05:43:36.275Z,2.28
2023-03-05T05:44:37.113Z,2.30
2023-03-05T05:45:36.357Z,2.33
2023-03-05T05:46:36.351Z,2.33
2023-03-05T05:47:36.245Z,2.34
2023-03-05T05:48:36.228Z,2.33
2023-03-05T05:49:36.206Z,2.30
2023-03-05T05:50:37.046Z,2.30
2023-03-05T05:51:36.320Z,2.30
2023-03-05T05:52:36.220Z,2.30
2023-03-05T05:53:36.178Z,2.30
2023-03-05T05:54:36.173Z,2.28
2023-03-05T05:55:36.148Z,2.31
2023-03-05T05:56:36.114Z,2.31
2023-03-05T05:57:36.144Z,2.31
2023-03-05T05:58:36.099Z,2.31
2023-03-05T05:59:36.981Z,2.31
2023-03-05T06:00:36.080Z,2.31
2023-03-05T06:01:36.231Z,2.30
2023-03-05T06:02:36.072Z,2.33
2023-03-05T06:03:36.846Z,2.33
2023-03-05T06:04:37.242Z,2.34
2023-03-05T06:05:37.142Z,2.35
2023-03-05T06:06:36.001Z,2.34
2023-03-05T06:07:35.993Z,2.33
2023-03-05T06:08:35.981Z,2.35
2023-03-05T06:09:36.797Z,2.35
2023-03-05T06:10:36.048Z,2.35
2023-03-05T06:11:35.929Z,2.35
2023-03-05T06:12:35.971Z,2.35
2023-03-05T06:13:35.917Z,2.37
2023-03-05T06:14:35.925Z,2.37
2023-03-05T06:15:36.908Z,2.37
2023-03-05T06:16:36.492Z,2.38
2023-03-05T06:17:35.906Z,2.40
2023-03-05T06:18:36.547Z,2.40
2023-03-05T06:19:35.839Z,2.40
2023-03-05T06:20:36.686Z,2.40
2023-03-05T06:21:36.204Z,2.41
2023-03-05T06:22:35.861Z,2.41
2023-03-05T06:23:35.789Z,2.41
2023-03-05T06:24:35.772Z,2.41
2023-03-05T06:25:35.800Z,2.41
2023-03-05T06:26:35.804Z,2.40
2023-03-05T06:27:36.571Z,2.41
2023-03-05T06:28:36.054Z,2.41
2023-03-05T06:29:36.660Z,2.40
2023-03-05T06:30:35.845Z,2.40
2023-03-05T06:31:37.334Z,2.40
2023-03-05T06:32:35.916Z,2.41
2023-03-05T06:33:35.719Z,2.41
2023-03-05T06:34:35.645Z,2.40
2023-03-05T06:35:35.678Z,2.37
2023-03-05T06:36:35.644Z,2.38
2023-03-05T06:37:35.610Z,2.33
2023-03-05T06:38:35.612Z,2.31
2023-03-05T06:39:35.609Z,2.26
2023-03-05T06:40:35.592Z,2.22
2023-03-05T06:41:35.529Z,2.20
2023-03-05T06:42:35.523Z,2.20
2023-03-05T06:43:35.567Z,2.20
2023-03-05T06:44:35.525Z,2.22
2023-03-05T06:45:35.586Z,2.19
2023-03-05T06:46:35.559Z,2.22
2023-03-05T06:47:35.481Z,2.26
2023-03-05T06:48:35.483Z,2.23
2023-03-05T06:49:35.451Z,2.23
2023-03-05T06:50:35.453Z,2.26
2023-03-05T06:51:35.416Z,2.27
2023-03-05T06:52:35.470Z,2.27
2023-03-05T06:53:35.426Z,2.30
2023-03-05T06:54:35.559Z,2.33
2023-03-05T06:55:35.560Z,2.35
2023-03-05T06:56:35.469Z,2.34
2023-03-05T06:57:35.440Z,2.35
2023-03-05T06:58:35.415Z,2.37
2023-03-05T06:59:35.377Z,2.40
2023-03-05T07:00:35.329Z,2.40
2023-03-05T07:01:35.399Z,2.45
2023-03-05T07:02:35.335Z,2.46
2023-03-05T07:03:35.277Z,2.48
2023-03-05T07:04:35.244Z,2.49
2023-03-05T07:05:35.257Z,2.49
2023-03-05T07:06:35.252Z,2.49
2023-03-05T07:07:35.222Z,2.52
2023-03-05T07:08:35.221Z,2.55
2023-03-05T07:09:35.221Z,2.56
2023-03-05T07:10:35.165Z,2.58
2023-03-05T07:11:35.249Z,2.59
2023-03-05T07:12:35.188Z,2.64
2023-03-05T07:13:35.152Z,2.66
2023-03-05T07:14:35.196Z,2.69
2023-03-05T07:15:35.116Z,2.67
2023-03-05T07:16:35.128Z,2.67
2023-03-05T07:17:35.893Z,2.73
2023-03-05T07:18:35.113Z,2.73
2023-03-05T07:19:35.075Z,2.76
2023-03-05T07:20:35.044Z,2.82
2023-03-05T07:21:38.261Z,2.84
2023-03-05T07:22:35.056Z,2.87
2023-03-05T07:23:35.047Z,2.85
2023-03-05T07:24:35.107Z,2.87
2023-03-05T07:25:34.985Z,2.91
2023-03-05T07:26:35.037Z,2.92
2023-03-05T07:27:34.969Z,3.02
2023-03-05T07:28:35.826Z,3.06
2023-03-05T07:29:35.204Z,3.06
2023-03-05T07:30:36.190Z,3.02
2023-03-05T07:31:34.982Z,3.05
2023-03-05T07:32:34.970Z,3.12
2023-03-05T07:33:35.158Z,3.18
2023-03-05T07:34:34.926Z,3.18
2023-03-05T07:35:36.393Z,3.16
2023-03-05T07:36:35.274Z,3.10
2023-03-05T07:37:34.847Z,3.10
2023-03-05T07:38:34.826Z,3.09
2023-03-05T07:39:34.827Z,3.06
2023-03-05T07:40:34.828Z,3.06
2023-03-05T07:41:34.866Z,3.07
2023-03-05T07:42:34.847Z,3.07
2023-03-05T07:43:34.820Z,3.10
2023-03-05T07:44:34.748Z,3.10
2023-03-05T07:45:34.899Z,3.13
2023-03-05T07:46:35.702Z,3.16
2023-03-05T07:47:34.958Z,3.18
2023-03-05T07:48:34.740Z,3.18
2023-03-05T07:49:34.689Z,3.13
2023-03-05T07:50:34.701Z,3.12
2023-03-05T07:51:34.674Z,3.09
2023-03-05T07:52:34.648Z,3.07
2023-03-05T07:53:34.632Z,3.05
2023-03-05T07:54:34.963Z,3.05
2023-03-05T07:55:35.589Z,3.06
2023-03-05T07:56:34.981Z,3.07
2023-03-05T07:57:34.980Z,3.06
2023-03-05T07:58:34.581Z,3.05
2023-03-05T07:59:34.693Z,3.09
2023-03-05T08:00:35.521Z,3.06
2023-03-05T08:01:35.732Z,2.95
2023-03-05T08:02:34.614Z,2.92
2023-03-05T08:03:34.564Z,2.85
2023-03-05T08:04:34.502Z,2.84
2023-03-05T08:05:34.680Z,2.82
2023-03-05T08:06:34.696Z,2.81
2023-03-05T08:07:34.734Z,2.82
2023-03-05T08:08:34.496Z,2.82
2023-03-05T08:09:35.489Z,2.81
2023-03-05T08:10:34.451Z,2.82
2023-03-05T08:11:34.706Z,2.81
2023-03-05T08:12:34.640Z,2.85
2023-03-05T08:13:34.468Z,2.92
2023-03-05T08:14:34.390Z,2.97
2023-03-05T08:15:34.550Z,3.02
2023-03-05T08:16:34.459Z,3.00
2023-03-05T08:17:34.563Z,3.05
2023-03-05T08:18:34.743Z,3.09
2023-03-05T08:19:34.375Z,3.07
2023-03-05T08:20:34.692Z,3.09
2023-03-05T08:21:34.505Z,3.10
2023-03-05T08:22:34.285Z,3.15
2023-03-05T08:23:34.254Z,3.07
2023-03-05T08:24:34.285Z,3.10
2023-03-05T08:25:34.232Z,3.15
2023-03-05T08:26:34.422Z,3.20
2023-03-05T08:27:34.291Z,3.27
2023-03-05T08:28:34.521Z,3.33
2023-03-05T08:29:34.253Z,3.25
2023-03-05T08:30:34.297Z,3.21
2023-03-05T08:31:34.330Z,3.18
2023-03-05T08:32:34.313Z,3.20
2023-03-05T08:33:35.376Z,3.21
2023-03-05T08:34:34.114Z,3.13
2023-03-05T08:35:35.084Z,3.10
2023-03-05T08:36:34.097Z,3.06
2023-03-05T08:37:34.118Z,3.06
2023-03-05T08:38:34.074Z,3.07
2023-03-05T08:39:34.066Z,3.06
2023-03-05T08:40:34.048Z,3.07
2023-03-05T08:41:34.045Z,3.12
2023-03-05T08:42:33.996Z,3.09
2023-03-05T08:43:34.079Z,3.13
2023-03-05T08:44:34.012Z,3.16
2023-03-05T08:45:34.091Z,3.16
2023-03-05T08:46:34.030Z,3.16
2023-03-05T08:47:33.969Z,3.23
2023-03-05T08:48:34.013Z,3.23
2023-03-05T08:49:34.749Z,3.21
2023-03-05T08:50:34.087Z,3.25
2023-03-05T08:51:33.988Z,3.27
2023-03-05T08:52:33.904Z,3.28
2023-03-05T08:53:33.928Z,3.36
2023-03-05T08:54:33.881Z,3.33
2023-03-05T08:55:33.841Z,3.36
2023-03-05T08:56:33.958Z,3.39
2023-03-05T08:57:33.828Z,3.34
2023-03-05T08:58:33.866Z,3.39
2023-03-05T08:59:34.782Z,3.36
2023-03-05T09:00:33.966Z,3.36
2023-03-05T09:01:34.699Z,3.34
2023-03-05T09:02:33.889Z,3.34
2023-03-05T09:03:33.836Z,3.27
2023-03-05T09:04:33.732Z,3.20
2023-03-05T09:05:33.868Z,3.09
2023-03-05T09:06:33.788Z,3.00
2023-03-05T09:07:33.714Z,2.98
2023-03-05T09:08:33.784Z,2.97
2023-03-05T09:09:33.981Z,2.89
2023-03-05T09:10:33.668Z,2.89
2023-03-05T09:11:34.656Z,2.79
2023-03-05T09:12:33.863Z,2.52
2023-03-05T09:13:33.674Z,2.13
2023-03-05T09:14:35.050Z,1.83
2023-03-05T09:15:34.782Z,1.58
2023-03-05T09:16:34.104Z,1.40
2023-03-05T09:17:33.576Z,1.29
2023-03-05T09:18:33.610Z,1.25
2023-03-05T09:19:33.556Z,1.21
2023-03-05T09:20:33.522Z,1.08
2023-03-05T09:21:33.511Z,0.94
2023-03-05T09:22:33.517Z,1.04
2023-03-05T09:23:33.575Z,1.03
2023-03-05T09:24:33.594Z,0.96
2023-03-05T09:25:33.496Z,1.06
2023-03-05T09:26:33.581Z,1.15
2023-03-05T09:27:33.436Z,1.16
2023-03-05T09:28:33.522Z,1.21
2023-03-05T09:29:33.561Z,1.21
2023-03-05T09:30:33.413Z,1.22
2023-03-05T09:31:33.479Z,1.26
2023-03-05T09:32:33.479Z,1.37
2023-03-05T09:33:33.427Z,1.46
2023-03-05T09:34:33.422Z,1.47
2023-03-05T09:35:33.640Z,1.52
2023-03-05T09:36:33.328Z,1.58
2023-03-05T09:37:34.222Z,1.61
2023-03-05T09:38:33.353Z,1.72
2023-03-05T09:39:33.383Z,1.80
2023-03-05T09:40:33.574Z,1.82
2023-03-05T09:41:33.374Z,1.85
2023-03-05T09:42:33.284Z,1.90
2023-03-05T09:43:33.288Z,1.98
2023-03-05T09:44:33.323Z,2.13
2023-03-05T09:45:33.266Z,2.20
2023-03-05T09:46:34.369Z,2.23
2023-03-05T09:47:33.187Z,2.35
2023-03-05T09:48:33.203Z,2.35
2023-03-05T09:49:33.184Z,2.40
2023-03-05T09:50:33.321Z,2.44
2023-03-05T09:51:33.151Z,2.35
2023-03-05T09:52:33.204Z,2.38
2023-03-05T09:53:33.142Z,2.45
2023-03-05T09:54:33.104Z,2.38
2023-03-05T09:55:33.208Z,2.37
2023-03-05T09:56:33.692Z,2.45
2023-03-05T09:57:34.327Z,2.48
2023-03-05T09:58:34.231Z,2.53
2023-03-05T09:59:33.040Z,2.56
2023-03-05T10:00:34.066Z,2.63
2023-03-05T10:01:33.060Z,2.63
2023-03-05T10:02:33.041Z,2.69
2023-03-05T10:03:34.269Z,2.70
2023-03-05T10:04:32.973Z,2.66
2023-03-05T10:05:33.025Z,2.73
2023-03-05T10:06:33.975Z,2.79
2023-03-05T10:07:32.978Z,2.81
2023-03-05T10:08:32.954Z,2.87
2023-03-05T10:09:33.030Z,2.91
2023-03-05T10:10:32.926Z,3.00
2023-03-05T10:11:32.935Z,3.05
2023-03-05T10:12:32.904Z,3.05
2023-03-05T10:13:32.926Z,3.02
2023-03-05T10:14:33.724Z,3.13
2023-03-05T10:15:32.889Z,3.20
2023-03-05T10:16:33.047Z,3.24
2023-03-05T10:17:33.036Z,3.39
2023-03-05T10:18:32.983Z,3.47
2023-03-05T10:19:32.946Z,3.54
2023-03-05T10:20:33.148Z,3.62
2023-03-05T10:21:33.598Z,3.60
2023-03-05T10:22:32.855Z,3.64
2023-03-05T10:23:32.911Z,3.75
2023-03-05T10:24:32.776Z,3.75
2023-03-05T10:25:32.780Z,3.83
2023-03-05T10:26:32.799Z,3.80
2023-03-05T10:27:33.543Z,3.70
2023-03-05T10:28:32.991Z,3.58
2023-03-05T10:29:32.764Z,3.53
2023-03-05T10:30:32.680Z,3.50
2023-03-05T10:31:32.779Z,3.57
2023-03-05T10:32:33.095Z,3.67
2023-03-05T10:33:33.705Z,3.70
2023-03-05T10:34:32.617Z,3.72
2023-03-05T10:35:32.657Z,3.80
2023-03-05T10:36:32.591Z,3.85
2023-03-05T10:37:32.564Z,3.94
2023-03-05T10:38:32.567Z,3.94
2023-03-05T10:39:32.768Z,3.92
2023-03-05T10:40:32.617Z,4.00
2023-03-05T10:41:32.513Z,4.06
2023-03-05T10:42:32.482Z,4.01
2023-03-05T10:43:32.527Z,4.08
2023-03-05T10:44:32.485Z,4.16
2023-03-05T10:45:33.441Z,4.18
2023-03-05T10:46:32.479Z,4.24
2023-03-05T10:47:32.434Z,4.22
2023-03-05T10:48:32.994Z,4.25
2023-03-05T10:49:32.502Z,4.21
2023-03-05T10:50:32.465Z,4.15
2023-03-05T10:51:32.386Z,4.18
2023-03-05T10:52:32.371Z,4.14
2023-03-05T10:53:32.478Z,4.18
2023-03-05T10:54:32.376Z,4.24
2023-03-05T10:55:33.377Z,4.32
2023-03-05T10:56:32.581Z,4.42
2023-03-05T10:57:32.642Z,4.40
2023-03-05T10:58:32.422Z,4.44
2023-03-05T10:59:32.476Z,4.50
2023-03-05T11:00:33.263Z,4.42
2023-03-05T11:01:32.459Z,4.43
2023-03-05T11:02:32.295Z,4.44
2023-03-05T11:03:32.283Z,4.47
2023-03-05T11:04:32.251Z,4.46
2023-03-05T11:05:32.199Z,4.46
2023-03-05T11:06:32.189Z,4.46
2023-03-05T11:07:32.166Z,4.46
2023-03-05T11:08:32.191Z,4.57
2023-03-05T11:09:33.043Z,4.69
2023-03-05T11:10:32.259Z,4.64
2023-03-05T11:11:32.139Z,4.59
2023-03-05T11:12:32.110Z,4.67
2023-03-05T11:13:32.180Z,4.62
2023-03-05T11:14:32.156Z,4.67
2023-03-05T11:15:32.110Z,4.67
2023-03-05T11:16:32.130Z,4.70
2023-03-05T11:17:32.042Z,4.73
2023-03-05T11:18:32.057Z,4.84
2023-03-05T11:19:32.048Z,4.86
2023-03-05T11:20:32.104Z,4.89
2023-03-05T11:21:32.039Z,4.89
2023-03-05T11:22:32.033Z,4.91
2023-03-05T11:23:32.012Z,4.88
2023-03-05T11:24:31.952Z,4.75
2023-03-05T11:25:31.942Z,4.69
2023-03-05T11:26:31.931Z,4.69
2023-03-05T11:27:32.020Z,4.72
2023-03-05T11:28:33.667Z,4.76
2023-03-05T11:29:31.905Z,4.83
2023-03-05T11:30:32.087Z,4.89
2023-03-05T11:31:31.890Z,4.96
2023-03-05T11:32:31.900Z,4.95
2023-03-05T11:33:31.839Z,4.98
2023-03-05T11:34:31.881Z,4.94
2023-03-05T11:35:31.959Z,4.88
2023-03-05T11:36:31.845Z,4.91
2023-03-05T11:37:31.836Z,4.88
2023-03-05T11:38:34.072Z,4.86
2023-03-05T11:39:32.754Z,4.79
2023-03-05T11:40:32.013Z,4.77
2023-03-05T11:41:31.951Z,4.73
2023-03-05T11:42:31.784Z,4.57
2023-03-05T11:43:31.774Z,4.46
2023-03-05T11:44:31.783Z,4.43
2023-03-05T11:45:31.766Z,4.34
2023-03-05T11:46:31.835Z,4.29
2023-03-05T11:47:31.715Z,4.32
2023-03-05T11:48:31.721Z,4.32
2023-03-05T11:49:34.123Z,4.37
2023-03-05T11:50:31.650Z,4.42
2023-03-05T11:51:31.623Z,4.47
2023-03-05T11:52:31.705Z,4.54
2023-03-05T11:53:31.633Z,4.58
2023-03-05T11:54:31.596Z,4.65
2023-03-05T11:55:31.572Z,4.72
2023-03-05T11:56:31.637Z,4.83
2023-03-05T11:57:31.575Z,4.84
2023-03-05T11:58:31.545Z,4.76
2023-03-05T11:59:31.530Z,4.75
2023-03-05T12:00:32.758Z,4.75
2023-03-05T12:01:31.476Z,4.70
2023-03-05T12:02:31.576Z,4.65
2023-03-05T12:03:31.515Z,4.67
2023-03-05T12:04:31.485Z,4.55
2023-03-05T12:05:31.513Z,4.52
2023-03-05T12:06:31.433Z,4.42
2023-03-05T12:07:31.433Z,4.25
2023-03-05T12:08:31.463Z,4.15
2023-03-05T12:09:31.412Z,4.06
2023-03-05T12:10:31.417Z,4.01
2023-03-05T12:11:31.389Z,4.04
2023-03-05T12:12:32.129Z,4.10
2023-03-05T12:13:31.974Z,4.14
2023-03-05T12:14:31.496Z,4.21
2023-03-05T12:15:31.359Z,4.21
2023-03-05T12:16:31.463Z,4.16
2023-03-05T12:17:31.326Z,4.16
2023-03-05T12:18:31.481Z,4.22
2023-03-05T12:19:31.271Z,4.16
2023-03-05T12:20:31.388Z,4.14
2023-03-05T12:21:31.265Z,4.10
2023-03-05T12:22:31.227Z,4.07
2023-03-05T12:23:31.257Z,4.07
2023-03-05T12:24:31.227Z,4.06
2023-03-05T12:25:31.654Z,4.10
2023-03-05T12:26:31.197Z,4.18
2023-03-05T12:27:31.239Z,4.16
2023-03-05T12:28:31.198Z,4.06
2023-03-05T12:29:31.156Z,3.94
2023-03-05T12:30:31.164Z,3.90
2023-03-05T12:31:31.303Z,3.79
2023-03-05T12:32:31.176Z,3.78
2023-03-05T12:33:31.111Z,3.85
2023-03-05T12:34:32.062Z,3.96
2023-03-05T12:35:31.270Z,4.12
2023-03-05T12:36:31.080Z,4.29
2023-03-05T12:37:31.119Z,4.37
2023-03-05T12:38:32.069Z,4.43
2023-03-05T12:39:31.007Z,4.57
2023-03-05T12:40:31.734Z,4.69
2023-03-05T12:41:32.952Z,4.73
2023-03-05T12:42:31.055Z,4.76
2023-03-05T12:43:30.987Z,4.77
2023-03-05T12:44:31.050Z,4.95
2023-03-05T12:45:32.040Z,5.02
2023-03-05T12:46:30.993Z,4.91
2023-03-05T12:47:30.958Z,4.88
2023-03-05T12:48:31.055Z,4.88
2023-03-05T12:49:30.931Z,4.92
2023-03-05T12:50:30.913Z,4.98
2023-03-05T12:51:30.893Z,4.99
2023-03-05T12:52:30.943Z,5.01
2023-03-05T12:53:30.865Z,4.96
2023-03-05T12:54:30.889Z,4.92
2023-03-05T12:55:30.824Z,4.91
2023-03-05T12:56:30.838Z,4.91
2023-03-05T12:57:30.794Z,4.95
2023-03-05T12:58:30.780Z,5.02
2023-03-05T12:59:30.779Z,4.99
2023-03-05T13:00:30.876Z,4.94
2023-03-05T13:01:30.735Z,5.07
2023-03-05T13:02:30.776Z,5.22
2023-03-05T13:03:30.772Z,5.34
2023-03-05T13:04:30.803Z,5.49
2023-03-05T13:05:30.740Z,5.56
2023-03-05T13:06:30.686Z,5.49
2023-03-05T13:07:30.687Z,5.41
2023-03-05T13:08:30.636Z,5.34
2023-03-05T13:09:30.747Z,5.40
2023-03-05T13:10:30.656Z,5.37
2023-03-05T13:11:30.608Z,5.35
2023-03-05T13:12:30.657Z,5.27
2023-03-05T13:13:31.037Z,5.22
2023-03-05T13:14:30.569Z,5.05
2023-03-05T13:15:30.619Z,4.98
2023-03-05T13:16:30.625Z,5.01
2023-03-05T13:17:30.533Z,5.02
2023-03-05T13:18:30.516Z,5.07